Time;durP1;ratioP1;P1;durP2;ratioP2;P2;SDS_P1;SDS_P2;PMS_P1;PMS_P2;Temp;Humidity;BMP_temperature;BMP_pressure;BME280_temperature;BME280_humidity;BME280_pressure;Samples;Min_cycle;Max_cycle;Signal;HPM_P1;HPM_P2
2023/10/06 00:00:26;;;;;;;14.40;8.73;;;11.40;99.90;;;;;;6074142;23;20304;-84
2023/10/06 00:02:56;;;;;;;13.10;7.80;;;11.40;99.90;;;;;;6073311;23;20183;-81
2023/10/06 00:05:38;;;;;;;17.23;8.20;;;11.40;99.90;;;;;;6097115;23;20197;-82
2023/10/06 00:08:11;;;;;;;13.77;8.00;;;11.50;99.90;;;;;;6121277;23;20593;-80
2023/10/06 00:11:02;;;;;;;16.60;8.03;;;11.70;99.90;;;;;;6096439;23;20616;-84
2023/10/06 00:13:37;;;;;;;17.27;8.20;;;11.50;99.90;;;;;;6097468;23;20502;-82
2023/10/06 00:16:19;;;;;;;11.33;7.20;;;11.60;99.90;;;;;;6075450;23;20184;-84
2023/10/06 00:18:59;;;;;;;13.60;7.60;;;11.60;99.90;;;;;;6097154;23;20195;-84
2023/10/06 00:21:30;;;;;;;14.37;7.60;;;11.70;99.90;;;;;;6095230;23;20216;-84
2023/10/06 00:24:07;;;;;;;13.07;7.90;;;11.70;99.90;;;;;;6096828;23;20593;-82
2023/10/06 00:26:42;;;;;;;13.13;7.63;;;11.50;99.90;;;;;;6146219;23;20172;-81
2023/10/06 00:29:22;;;;;;;11.63;7.03;;;11.60;99.90;;;;;;6125755;23;20246;-82
2023/10/06 00:35:30;;;;;;;10.27;6.83;;;11.50;99.90;;;;;;6123997;23;20172;-81
2023/10/06 00:38:17;;;;;;;13.23;6.60;;;11.50;99.90;;;;;;6151005;23;20176;-82
2023/10/06 00:40:53;;;;;;;14.87;6.57;;;11.50;99.90;;;;;;6126607;23;20444;-81
2023/10/06 00:43:43;;;;;;;9.47;6.20;;;11.40;99.90;;;;;;6151043;23;20178;-82
2023/10/06 00:46:18;;;;;;;12.57;6.47;;;11.40;99.90;;;;;;6102426;23;20176;-82
2023/10/06 00:49:00;;;;;;;11.33;6.50;;;11.40;99.90;;;;;;6101542;23;20168;-82
2023/10/06 00:51:28;;;;;;;13.87;6.30;;;11.30;99.90;;;;;;6126840;23;20220;-82
2023/10/06 00:54:05;;;;;;;12.57;6.77;;;11.40;99.90;;;;;;6126528;23;20168;-83
2023/10/06 00:56:47;;;;;;;11.97;6.73;;;11.10;99.90;;;;;;6126095;23;20599;-82
2023/10/06 00:59:17;;;;;;;11.17;5.67;;;11.20;99.90;;;;;;6151194;23;20168;-83
2023/10/06 01:01:49;;;;;;;10.73;5.60;;;11.20;99.90;;;;;;6126101;23;20263;-81
2023/10/06 01:04:25;;;;;;;11.40;6.07;;;11.10;99.90;;;;;;6150708;23;20246;-81
2023/10/06 01:06:54;;;;;;;12.97;5.77;;;11.20;99.90;;;;;;6149602;23;20684;-81
2023/10/06 01:09:30;;;;;;;12.77;6.07;;;11.20;99.90;;;;;;6124929;23;20168;-81
2023/10/06 01:12:06;;;;;;;12.87;5.93;;;11.10;99.90;;;;;;6201357;23;20178;-80
2023/10/06 01:14:34;;;;;;;15.63;6.27;;;11.00;99.90;;;;;;6243700;22;20177;-81
2023/10/06 01:17:16;;;;;;;13.83;6.20;;;11.00;99.90;;;;;;6242785;23;20174;-81
2023/10/06 01:19:48;;;;;;;11.17;5.80;;;10.90;99.90;;;;;;6217167;22;20178;-83
2023/10/06 01:22:28;;;;;;;15.00;5.80;;;10.80;99.90;;;;;;6275119;22;20189;-81
2023/10/06 01:25:11;;;;;;;12.87;6.10;;;10.70;99.90;;;;;;6223112;22;20279;-81
2023/10/06 01:27:52;;;;;;;13.50;6.87;;;10.70;99.90;;;;;;6224662;22;20181;-82
2023/10/06 01:30:22;;;;;;;11.87;6.20;;;10.60;99.90;;;;;;6275042;22;20245;-82
2023/10/06 01:32:50;;;;;;;12.90;6.63;;;10.70;99.90;;;;;;6247185;22;20245;-82
2023/10/06 01:35:23;;;;;;;13.20;7.17;;;10.60;99.90;;;;;;6248890;22;20154;-82
2023/10/06 01:38:05;;;;;;;14.67;6.70;;;10.60;99.90;;;;;;6248093;22;20154;-82
2023/10/06 01:40:44;;;;;;;13.00;6.77;;;10.70;99.90;;;;;;6274385;22;20236;-80
2023/10/06 01:43:14;;;;;;;12.27;6.73;;;10.70;99.90;;;;;;6223015;22;20197;-82
2023/10/06 01:45:59;;;;;;;11.37;6.57;;;10.60;99.90;;;;;;6222061;22;20255;-83
2023/10/06 01:48:36;;;;;;;13.53;7.53;;;10.60;99.90;;;;;;6247711;22;20202;-83
2023/10/06 01:51:35;;;;;;;11.23;6.67;;;10.50;99.90;;;;;;6221805;22;20197;-84
2023/10/06 01:54:12;;;;;;;15.13;7.13;;;10.50;99.90;;;;;;6220161;22;20251;-84
2023/10/06 01:56:54;;;;;;;12.37;6.90;;;10.50;99.90;;;;;;6223902;22;20175;-84
2023/10/06 01:59:30;;;;;;;14.80;7.70;;;10.60;99.90;;;;;;6247035;22;20174;-84
2023/10/06 02:02:17;;;;;;;18.03;7.33;;;10.40;99.90;;;;;;6248846;22;20189;-81
2023/10/06 02:04:57;;;;;;;11.67;7.13;;;10.40;99.90;;;;;;6223172;22;20197;-84
2023/10/06 02:08:02;;;;;;;14.50;7.20;;;10.40;99.90;;;;;;6231275;22;20502;-83
2023/10/06 02:10:55;;;;;;;16.60;7.90;;;10.50;99.90;;;;;;6247631;22;20465;-83
2023/10/06 02:13:37;;;;;;;20.03;9.07;;;10.40;99.90;;;;;;6224826;22;20227;-83
2023/10/06 02:16:38;;;;;;;16.30;8.33;;;10.40;99.90;;;;;;6252063;22;20180;-82
2023/10/06 02:19:28;;;;;;;13.87;8.13;;;10.40;99.90;;;;;;6222519;22;20170;-82
2023/10/06 02:22:06;;;;;;;14.77;8.60;;;10.30;99.90;;;;;;6244259;23;20178;-82
2023/10/06 02:24:44;;;;;;;16.30;9.07;;;10.40;99.90;;;;;;6218580;23;20229;-82
2023/10/06 02:27:19;;;;;;;14.63;9.10;;;10.40;99.90;;;;;;6243180;23;20186;-82
2023/10/06 02:29:56;;;;;;;18.00;9.57;;;10.30;99.90;;;;;;6245801;22;20156;-83
2023/10/06 02:32:40;;;;;;;18.47;9.43;;;10.30;99.90;;;;;;6244105;23;20158;-84
2023/10/06 02:35:17;;;;;;;23.07;10.57;;;10.30;99.90;;;;;;6244318;23;20181;-83
2023/10/06 02:38:04;;;;;;;19.67;10.43;;;10.20;99.90;;;;;;6220889;23;20170;-83
2023/10/06 02:40:49;;;;;;;19.33;11.13;;;10.30;99.90;;;;;;6243897;23;20174;-82
2023/10/06 02:43:23;;;;;;;20.17;10.87;;;10.30;99.90;;;;;;6243850;23;20170;-82
2023/10/06 02:45:51;;;;;;;18.60;11.20;;;10.30;99.90;;;;;;6243783;23;20218;-83
2023/10/06 02:48:32;;;;;;;21.70;12.00;;;10.40;99.90;;;;;;6244049;23;20249;-82
2023/10/06 02:51:02;;;;;;;21.00;11.63;;;10.50;99.90;;;;;;6219825;23;20244;-81
2023/10/06 02:53:35;;;;;;;20.93;11.77;;;10.40;99.90;;;;;;6245453;22;20177;-82
2023/10/06 02:56:07;;;;;;;22.70;11.97;;;10.40;99.90;;;;;;6242912;23;20180;-80
2023/10/06 02:58:40;;;;;;;22.33;11.67;;;10.50;99.90;;;;;;6243903;23;20216;-80
2023/10/06 03:01:14;;;;;;;19.73;11.50;;;10.60;99.90;;;;;;6243516;23;20169;-81
2023/10/06 03:03:44;;;;;;;20.10;11.10;;;10.50;99.90;;;;;;6245911;22;20175;-81
2023/10/06 03:06:17;;;;;;;21.77;11.47;;;10.60;99.90;;;;;;6245167;22;20190;-81
2023/10/06 03:08:48;;;;;;;19.53;11.27;;;10.60;99.90;;;;;;6242820;23;20162;-83
2023/10/06 03:11:24;;;;;;;20.00;10.93;;;10.60;99.90;;;;;;6243626;23;20155;-82
2023/10/06 03:13:58;;;;;;;21.27;12.10;;;10.70;99.90;;;;;;6242442;23;20166;-83
2023/10/06 03:16:32;;;;;;;26.80;12.77;;;10.60;99.90;;;;;;6243549;23;20244;-80
2023/10/06 03:19:05;;;;;;;25.50;13.10;;;10.70;99.90;;;;;;6243675;23;20170;-81
2023/10/06 03:21:39;;;;;;;26.27;14.33;;;10.70;99.90;;;;;;6223336;22;20259;-82
2023/10/06 03:24:19;;;;;;;26.33;14.50;;;10.70;99.90;;;;;;6221868;22;20165;-81
2023/10/06 03:26:51;;;;;;;26.37;15.10;;;10.80;99.90;;;;;;6247558;22;20651;-81
2023/10/06 03:29:28;;;;;;;28.07;15.80;;;10.80;99.90;;;;;;6248792;22;20169;-81
2023/10/06 03:32:01;;;;;;;24.43;14.87;;;10.70;99.90;;;;;;6247924;22;20161;-81
2023/10/06 03:34:52;;;;;;;26.57;15.27;;;10.70;99.90;;;;;;6249021;22;20192;-81
2023/10/06 03:37:51;;;;;;;27.07;14.90;;;10.80;99.90;;;;;;6247657;22;20205;-79
2023/10/06 03:40:42;;;;;;;27.07;14.07;;;10.70;99.90;;;;;;6248928;22;20180;-80
2023/10/06 03:43:20;;;;;;;26.17;13.90;;;10.70;99.90;;;;;;6221891;22;20853;-80
2023/10/06 03:45:48;;;;;;;23.93;13.63;;;10.70;99.90;;;;;;6273696;22;20180;-81
2023/10/06 03:48:24;;;;;;;26.20;13.97;;;10.80;99.90;;;;;;6275472;22;20585;-81
2023/10/06 03:50:52;;;;;;;23.83;14.10;;;10.70;99.90;;;;;;6223857;22;20267;-81
2023/10/06 03:53:24;;;;;;;23.30;12.90;;;10.70;99.90;;;;;;6248116;22;20528;-82
2023/10/06 03:55:53;;;;;;;26.80;13.40;;;10.70;99.90;;;;;;6222441;22;20260;-81
2023/10/06 03:58:25;;;;;;;25.53;13.67;;;10.80;99.90;;;;;;6275666;22;20491;-81
2023/10/06 04:00:58;;;;;;;20.90;12.60;;;10.80;99.90;;;;;;6249349;22;20486;-81
2023/10/06 04:03:27;;;;;;;21.47;12.80;;;10.70;99.90;;;;;;6247753;22;20260;-82
2023/10/06 04:05:57;;;;;;;23.87;11.77;;;10.70;99.90;;;;;;6247377;22;20529;-82
2023/10/06 04:08:25;;;;;;;25.33;12.53;;;10.70;99.90;;;;;;6247694;22;20683;-82
2023/10/06 04:10:57;;;;;;;22.77;12.23;;;10.70;99.90;;;;;;6273860;22;20221;-84
2023/10/06 04:13:26;;;;;;;20.00;11.80;;;10.90;99.90;;;;;;6274532;22;20169;-83
2023/10/06 04:15:57;;;;;;;19.87;11.93;;;10.90;99.90;;;;;;6275217;22;20157;-81
2023/10/06 04:18:25;;;;;;;20.77;11.57;;;10.80;99.90;;;;;;6273684;22;20207;-81
2023/10/06 04:20:54;;;;;;;20.63;11.47;;;10.80;99.90;;;;;;6247151;22;20197;-83
2023/10/06 04:23:25;;;;;;;22.47;11.43;;;10.70;99.90;;;;;;6248323;22;20448;-82
2023/10/06 04:25:56;;;;;;;23.20;11.83;;;10.70;99.90;;;;;;6275165;22;20231;-82
2023/10/06 04:28:27;;;;;;;25.50;12.77;;;10.70;99.90;;;;;;6223130;22;20192;-82
2023/10/06 04:31:01;;;;;;;24.60;13.47;;;10.70;99.90;;;;;;6275134;22;20204;-81
2023/10/06 04:33:30;;;;;;;28.53;14.33;;;10.60;99.90;;;;;;6221631;22;20174;-82
2023/10/06 04:36:01;;;;;;;23.43;13.30;;;10.60;99.90;;;;;;6247221;22;20258;-81
2023/10/06 04:38:31;;;;;;;29.87;13.83;;;10.70;99.90;;;;;;6248149;22;20180;-83
2023/10/06 04:41:08;;;;;;;23.90;13.67;;;10.50;99.90;;;;;;6275251;22;20695;-81
2023/10/06 04:43:45;;;;;;;27.60;13.27;;;10.40;99.90;;;;;;6272986;22;20177;-82
2023/10/06 04:46:16;;;;;;;24.10;14.03;;;10.50;99.90;;;;;;6273929;22;20188;-83
2023/10/06 04:48:48;;;;;;;26.47;13.27;;;10.70;99.90;;;;;;6274486;22;20165;-82
2023/10/06 04:55:53;;;;;;;25.90;13.17;;;10.60;99.90;;;;;;6118936;23;20223;-84
2023/10/06 04:58:29;;;;;;;22.57;13.53;;;10.50;99.90;;;;;;6093667;23;20502;-81
2023/10/06 05:01:09;;;;;;;24.10;12.87;;;10.60;99.90;;;;;;6123588;23;20169;-81
2023/10/06 05:03:47;;;;;;;26.70;14.03;;;10.60;99.90;;;;;;6096093;23;20279;-80
2023/10/06 05:06:27;;;;;;;24.43;13.87;;;10.70;99.90;;;;;;6120810;23;20215;-80
2023/10/06 05:09:01;;;;;;;24.43;13.27;;;10.80;99.90;;;;;;6074172;23;20169;-79
2023/10/06 05:11:32;;;;;;;24.20;13.30;;;10.70;99.90;;;;;;6096934;23;20173;-81
2023/10/06 05:14:08;;;;;;;26.57;14.33;;;10.60;99.90;;;;;;6120765;23;20176;-83
2023/10/06 05:16:41;;;;;;;31.03;14.13;;;10.60;99.90;;;;;;6098062;23;20173;-80
2023/10/06 05:19:12;;;;;;;24.27;13.83;;;10.70;99.90;;;;;;6121399;23;20173;-81
2023/10/06 05:21:44;;;;;;;22.80;13.80;;;10.70;99.90;;;;;;6120565;23;20220;-81
2023/10/06 05:24:16;;;;;;;25.43;13.60;;;10.70;99.90;;;;;;6120811;23;20173;-81
2023/10/06 05:26:47;;;;;;;26.90;14.50;;;10.70;99.90;;;;;;6120715;23;20193;-80
2023/10/06 05:29:16;;;;;;;26.20;14.67;;;10.50;99.90;;;;;;6097169;23;20168;-80
2023/10/06 05:31:52;;;;;;;29.27;14.77;;;10.50;99.90;;;;;;6220596;22;20169;-80
2023/10/06 05:34:33;;;;;;;26.17;15.00;;;10.60;99.90;;;;;;6246857;22;20169;-83
2023/10/06 05:37:02;;;;;;;27.13;15.13;;;10.50;99.90;;;;;;6274301;22;20636;-79
2023/10/06 05:40:34;;;;;;;31.90;15.80;;;10.50;99.90;;;;;;6274148;22;20166;-82
2023/10/06 05:43:12;;;;;;;34.13;15.73;;;10.60;99.90;;;;;;6275932;22;20176;-83
2023/10/06 05:45:45;;;;;;;28.57;15.27;;;10.70;99.90;;;;;;6249559;22;20189;-81
2023/10/06 05:48:15;;;;;;;29.80;16.57;;;10.70;99.90;;;;;;6249542;22;20195;-81
2023/10/06 05:51:12;;;;;;;26.13;14.67;;;10.80;99.90;;;;;;6275621;22;20414;-82
2023/10/06 05:53:43;;;;;;;29.90;15.97;;;10.70;99.90;;;;;;6276061;22;20180;-80
2023/10/06 05:56:12;;;;;;;29.13;16.00;;;10.60;99.90;;;;;;6249021;22;20172;-81
2023/10/06 05:58:43;;;;;;;34.40;16.33;;;10.60;99.90;;;;;;6222757;22;20185;-81
2023/10/06 06:01:14;;;;;;;28.33;16.63;;;10.60;99.90;;;;;;6275837;22;20200;-81
2023/10/06 06:04:08;;;;;;;34.23;16.67;;;10.40;99.90;;;;;;6252758;22;20193;-81
2023/10/06 06:06:39;;;;;;;34.20;17.23;;;10.40;99.90;;;;;;6276008;22;20268;-80
2023/10/06 06:09:14;;;;;;;33.87;18.00;;;10.40;99.90;;;;;;6275094;22;20168;-80
2023/10/06 06:11:43;;;;;;;34.57;18.30;;;10.60;99.90;;;;;;6249292;22;20593;-80
2023/10/06 06:14:14;;;;;;;38.23;19.50;;;10.60;99.90;;;;;;6223804;22;20612;-81
2023/10/06 06:17:00;;;;;;;37.83;19.87;;;10.60;99.90;;;;;;6274967;22;20165;-80
2023/10/06 06:19:32;;;;;;;42.47;20.80;;;10.70;99.90;;;;;;6248966;22;20173;-83
2023/10/06 06:22:05;;;;;;;38.53;18.97;;;10.80;99.90;;;;;;6248141;22;20204;-80
2023/10/06 06:24:33;;;;;;;46.30;21.17;;;10.70;99.90;;;;;;6275548;22;20166;-80
2023/10/06 06:27:47;;;;;;;40.13;19.10;;;10.70;99.90;;;;;;6228728;22;20223;-81
2023/10/06 06:30:29;;;;;;;40.43;19.37;;;11.00;99.90;;;;;;6152631;23;20271;-79
2023/10/06 06:33:12;;;;;;;39.90;18.70;;;10.80;99.90;;;;;;6152470;23;20172;-78
2023/10/06 06:35:45;;;;;;;40.40;18.73;;;10.60;99.90;;;;;;6127062;23;20651;-79
2023/10/06 06:38:18;;;;;;;40.60;19.03;;;10.70;99.90;;;;;;6126850;23;20184;-80
2023/10/06 06:40:49;;;;;;;46.73;19.63;;;10.60;99.90;;;;;;6128936;23;20180;-79
2023/10/06 06:43:24;;;;;;;38.03;18.67;;;10.50;99.90;;;;;;6129863;23;20224;-78
2023/10/06 06:45:55;;;;;;;39.57;18.90;;;10.80;99.90;;;;;;6126789;23;20562;-80
2023/10/06 06:48:28;;;;;;;40.97;19.43;;;10.90;99.90;;;;;;6151595;23;20514;-80
2023/10/06 06:50:57;;;;;;;38.97;20.57;;;10.80;99.90;;;;;;6151330;23;20224;-77
2023/10/06 06:53:40;;;;;;;41.10;19.53;;;10.90;99.90;;;;;;6128732;23;20591;-77
2023/10/06 06:56:20;;;;;;;38.67;20.30;;;10.90;99.90;;;;;;6152064;23;20252;-83
2023/10/06 06:58:49;;;;;;;39.97;20.47;;;11.00;99.90;;;;;;6127441;23;20172;-81
2023/10/06 07:01:24;;;;;;;38.93;19.97;;;11.20;99.90;;;;;;6128182;23;20241;-82
2023/10/06 07:08:13;;;;;;;41.13;20.63;;;11.30;99.90;;;;;;6236859;22;20513;-82
2023/10/06 07:10:53;;;;;;;43.90;22.00;;;11.30;99.90;;;;;;6245029;22;20170;-82
2023/10/06 07:13:35;;;;;;;46.47;22.27;;;11.30;99.90;;;;;;6251970;22;20158;-81
2023/10/06 07:16:09;;;;;;;47.13;22.27;;;11.30;99.90;;;;;;6247881;22;20226;-81
2023/10/06 07:18:59;;;;;;;41.73;21.73;;;11.40;99.90;;;;;;6275225;22;20158;-82
2023/10/06 07:21:34;;;;;;;47.63;22.17;;;11.30;99.90;;;;;;6249118;22;20280;-80
2023/10/06 07:24:33;;;;;;;42.10;21.73;;;11.40;99.90;;;;;;6275234;22;20177;-77
2023/10/06 07:27:13;;;;;;;38.83;19.77;;;11.30;99.90;;;;;;6248723;22;20557;-82
2023/10/06 07:29:58;;;;;;;42.80;20.70;;;11.30;99.90;;;;;;6224211;22;20165;-80
2023/10/06 07:32:30;;;;;;;40.60;20.50;;;11.30;99.90;;;;;;6248110;22;20177;-83
2023/10/06 07:35:20;;;;;;;41.57;20.27;;;11.40;99.90;;;;;;6248368;22;20166;-83
2023/10/06 07:38:03;;;;;;;40.13;20.60;;;11.60;99.90;;;;;;6223740;22;20169;-80
2023/10/06 07:40:49;;;;;;;35.97;19.00;;;11.50;99.90;;;;;;6226844;22;20176;-82
2023/10/06 07:43:23;;;;;;;29.67;16.80;;;11.20;99.90;;;;;;6248260;22;20174;-81
2023/10/06 07:45:55;;;;;;;31.33;16.20;;;11.30;99.90;;;;;;6248323;22;20254;-80
2023/10/06 07:48:36;;;;;;;31.63;15.60;;;11.20;99.90;;;;;;6223344;22;20609;-83
2023/10/06 07:51:35;;;;;;;26.53;14.30;;;11.40;99.90;;;;;;6244115;22;20223;-83
2023/10/06 07:54:46;;;;;;;26.40;14.80;;;11.50;99.90;;;;;;6247251;22;20176;-83
2023/10/06 07:57:57;;;;;;;25.60;14.50;;;11.60;99.90;;;;;;6227032;22;20193;-83
2023/10/06 08:00:42;;;;;;;25.10;14.77;;;11.80;99.90;;;;;;6247750;22;20269;-81
2023/10/06 08:03:32;;;;;;;;;;;;;;;;;;;;;
2023/10/06 08:06:12;;;;;;;24.10;14.40;;;11.80;99.90;;;;;;6247977;22;20201;-81
2023/10/06 08:09:11;;;;;;;25.07;14.10;;;11.90;99.90;;;;;;6275296;22;20249;-82
2023/10/06 08:11:54;;;;;;;22.63;13.17;;;12.00;99.90;;;;;;6249994;22;20149;-82
2023/10/06 08:15:16;;;;;;;21.53;12.90;;;12.00;99.90;;;;;;6255542;22;20560;-81
2023/10/06 08:18:12;;;;;;;25.47;13.23;;;12.20;99.90;;;;;;6211887;23;20175;-82
2023/10/06 08:20:50;;;;;;;20.97;12.23;;;12.10;99.90;;;;;;6185682;23;20729;-81
2023/10/06 08:23:39;;;;;;;21.17;12.50;;;12.40;99.90;;;;;;6187839;23;20715;-80
2023/10/06 08:26:52;;;;;;;20.87;12.27;;;12.50;99.90;;;;;;6186236;23;20207;-82
2023/10/06 08:30:21;;;;;;;18.40;12.10;;;12.60;99.90;;;;;;6165316;23;20233;-79
2023/10/06 08:33:11;;;;;;;20.53;11.83;;;12.80;99.90;;;;;;6099955;23;20176;-79
2023/10/06 08:35:54;;;;;;;23.27;13.03;;;12.80;99.90;;;;;;6121936;23;20196;-82
2023/10/06 08:39:03;;;;;;;21.73;12.13;;;12.90;99.90;;;;;;6097853;23;20177;-80
2023/10/06 08:41:56;;;;;;;17.30;10.73;;;12.90;99.90;;;;;;6118657;23;20203;-82
2023/10/06 08:46:19;;;;;;;;;;;;;;;;;;;;;
2023/10/06 08:49:27;;;;;;;17.07;9.77;;;13.00;99.90;;;;;;6121655;23;20413;-82
2023/10/06 08:52:15;;;;;;;;;;;;;;;;;;;;;
2023/10/06 08:55:06;;;;;;;16.47;9.00;;;13.20;99.90;;;;;;6127191;23;20195;-84
2023/10/06 09:02:13;;;;;;;15.37;6.80;;;13.60;99.90;;;;;;6078845;23;20613;-81
2023/10/06 09:05:10;;;;;;;11.73;6.53;;;13.70;99.90;;;;;;6096829;23;20236;-81
2023/10/06 09:08:27;;;;;;;11.83;6.60;;;13.90;99.90;;;;;;6123519;23;20198;-80
2023/10/06 09:11:12;;;;;;;12.20;5.77;;;13.90;99.90;;;;;;6094635;23;20247;-81
2023/10/06 09:13:43;;;;;;;9.97;5.73;;;13.90;99.90;;;;;;6122984;23;20169;-80
2023/10/06 09:16:18;;;;;;;9.87;5.63;;;13.90;99.90;;;;;;6123522;23;20173;-81
2023/10/06 09:19:27;;;;;;;;;;;;;;;;;;;;;
2023/10/06 09:22:28;;;;;;;11.87;5.30;;;13.70;99.90;;;;;;6098105;23;20299;-81
2023/10/06 09:25:04;;;;;;;11.17;5.53;;;13.60;99.90;;;;;;6086577;23;20507;-81
2023/10/06 09:28:13;;;;;;;9.40;4.90;;;13.60;99.90;;;;;;6127871;23;20211;-81
2023/10/06 09:30:56;;;;;;;9.07;4.50;;;13.60;99.90;;;;;;6151649;23;20176;-80
2023/10/06 09:33:43;;;;;;;11.20;4.63;;;13.80;99.90;;;;;;6103188;23;20602;-81
2023/10/06 09:36:21;;;;;;;10.57;4.40;;;14.00;99.90;;;;;;6129552;23;20188;-82
2023/10/06 09:39:34;;;;;;;8.67;3.57;;;14.30;99.90;;;;;;6197021;23;20228;-81
2023/10/06 09:42:18;;;;;;;10.93;4.43;;;14.70;99.90;;;;;;6219122;23;20169;-81
2023/10/06 09:45:13;;;;;;;7.00;3.83;;;14.80;99.90;;;;;;6194914;23;20597;-79
2023/10/06 09:48:40;;;;;;;11.23;4.30;;;15.20;99.90;;;;;;6079522;23;20675;-82
2023/10/06 09:51:50;;;;;;;9.30;4.10;;;15.50;99.90;;;;;;6121742;23;20203;-81
2023/10/06 09:54:51;;;;;;;11.43;4.30;;;14.70;99.90;;;;;;6122271;23;20730;-78
2023/10/06 09:57:59;;;;;;;8.67;3.73;;;14.80;99.90;;;;;;6106525;23;20176;-78
2023/10/06 10:00:40;;;;;;;8.23;3.87;;;15.40;99.90;;;;;;6075376;23;20203;-81
2023/10/06 10:03:25;;;;;;;10.47;3.67;;;15.70;99.90;;;;;;6073601;23;20181;-79
2023/10/06 10:07:12;;;;;;;;;;;;;;;;;;;;;
2023/10/06 10:15:12;;;;;;;11.37;5.07;;;16.80;99.90;;;;;;5948982;23;20251;-82
2023/10/06 10:19:16;;;;;;;11.03;5.20;;;16.40;99.90;;;;;;5952045;23;20216;-81
2023/10/06 10:22:17;;;;;;;12.77;4.90;;;16.50;99.90;;;;;;5860356;24;20219;-84
2023/10/06 10:24:56;;;;;;;28.00;7.00;;;16.50;99.90;;;;;;5842269;24;20167;-82
2023/10/06 10:27:43;;;;;;;9.97;4.67;;;16.60;99.90;;;;;;5842481;24;20240;-81
2023/10/06 10:30:36;;;;;;;8.63;4.40;;;16.50;99.90;;;;;;5819821;24;20246;-82
2023/10/06 10:33:21;;;;;;;6.77;3.97;;;16.40;99.90;;;;;;5797563;24;20527;-82
2023/10/06 10:36:48;;;;;;;11.97;4.43;;;16.40;99.90;;;;;;5784323;24;20196;-77
2023/10/06 11:01:55;;;;;;;9.30;3.90;;;18.80;99.90;;;;;;6057621;23;1711268;-81
2023/10/06 11:16:33;;;;;;;10.23;4.80;;;16.80;99.90;;;;;;5741726;24;20178;-78
2023/10/06 12:10:32;;;;;;;9.93;4.07;;;21.00;99.90;;;;;;6315099;22;20244;-83
2023/10/06 12:13:43;;;;;;;7.20;3.93;;;20.50;99.90;;;;;;6217405;23;20178;-80
2023/10/06 12:21:11;;;;;;;;;;;;;;;;;;;;;
2023/10/06 12:25:37;;;;;;;;;;;;;;;;;;;;;
2023/10/06 12:30:07;;;;;;;;;;;;;;;;;;;;;
2023/10/06 12:53:14;;;;;;;;;;;;;;;;;;;;;
2023/10/06 12:57:41;;;;;;;;;;;;;;;;;;;;;
2023/10/06 13:05:24;;;;;;;;;;;;;;;;;;;;;
2023/10/06 13:08:32;;;;;;;7.03;2.50;;;18.10;99.90;;;;;;4904808;29;20200;-81
2023/10/06 13:11:41;;;;;;;6.80;2.10;;;18.40;99.90;;;;;;4895758;29;20211;-81
2023/10/06 13:14:38;;;;;;;6.13;2.60;;;17.60;99.90;;;;;;4908150;29;20235;-80
2023/10/06 13:17:38;;;;;;;5.07;2.60;;;17.40;99.90;;;;;;4892562;29;20199;-82
2023/10/06 13:20:25;;;;;;;6.17;2.50;;;17.20;99.90;;;;;;4907955;29;20263;-80
2023/10/06 13:23:17;;;;;;;4.37;2.27;;;17.20;99.90;;;;;;4908383;29;20218;-81
2023/10/06 13:26:14;;;;;;;6.07;2.33;;;17.30;99.90;;;;;;4888920;29;20231;-80
2023/10/06 13:29:13;;;;;;;5.10;2.30;;;17.20;99.90;;;;;;4929831;29;20214;-79
2023/10/06 13:36:21;;;;;;;5.70;2.43;;;17.10;99.90;;;;;;4908688;29;20359;-78
2023/10/06 13:40:16;;;;;;;5.23;2.30;;;16.90;99.90;;;;;;4844938;29;20209;-81
2023/10/06 13:52:03;;;;;;;6.70;2.10;;;16.80;99.90;;;;;;4811685;29;20342;-81
2023/10/06 14:11:30;;;;;;;6.13;2.40;;;16.80;99.90;;;;;;5546284;22;16365895;-82
2023/10/06 14:17:16;;;;;;;6.60;2.20;;;17.10;99.90;;;;;;5931610;24;20485;-78
2023/10/06 14:19:54;;;;;;;8.40;2.00;;;17.00;99.90;;;;;;5909878;24;20185;-80
2023/10/06 14:22:30;;;;;;;5.80;2.10;;;16.90;99.90;;;;;;5931377;24;20277;-79
2023/10/06 14:25:02;;;;;;;6.67;2.20;;;16.90;99.90;;;;;;5908675;24;20267;-79
2023/10/06 14:27:44;;;;;;;6.03;2.40;;;16.70;99.90;;;;;;5907995;24;20195;-79
2023/10/06 14:30:15;;;;;;;6.07;2.13;;;16.60;99.90;;;;;;5906858;24;20173;-80
2023/10/06 14:47:47;;;;;;;5.83;1.93;;;16.20;99.90;;;;;;5902889;24;20177;-81
2023/10/06 14:50:30;;;;;;;6.43;2.30;;;16.20;99.90;;;;;;5984657;23;20216;-81
2023/10/06 14:53:03;;;;;;;4.87;1.77;;;16.20;99.90;;;;;;6042975;23;20196;-81
2023/10/06 14:55:37;;;;;;;5.20;1.83;;;16.10;99.90;;;;;;6043126;23;20166;-81
2023/10/06 14:58:15;;;;;;;7.60;1.87;;;16.10;99.90;;;;;;6042408;23;20611;-81
2023/10/06 15:00:46;;;;;;;6.77;2.00;;;16.00;99.90;;;;;;6018625;23;20240;-80
2023/10/06 15:03:19;;;;;;;6.87;2.43;;;16.10;99.90;;;;;;6042456;23;20174;-78
2023/10/06 15:06:05;;;;;;;5.53;2.13;;;16.00;99.90;;;;;;6012456;23;20694;-80
2023/10/06 15:08:52;;;;;;;7.17;1.97;;;16.00;99.90;;;;;;6035908;23;20232;-79
2023/10/06 15:11:26;;;;;;;7.90;2.20;;;16.00;99.90;;;;;;6030922;23;20243;-80
2023/10/06 15:13:57;;;;;;;6.73;2.40;;;16.00;99.90;;;;;;6123582;23;20284;-79
2023/10/06 15:16:28;;;;;;;5.93;2.40;;;15.90;99.90;;;;;;6154917;23;20246;-78
2023/10/06 15:18:57;;;;;;;6.63;2.27;;;15.90;99.90;;;;;;6105593;23;20176;-78
2023/10/06 15:21:27;;;;;;;5.63;2.40;;;15.90;99.90;;;;;;6104479;23;20196;-79
2023/10/06 15:23:59;;;;;;;8.07;2.50;;;15.90;99.90;;;;;;6154732;23;20227;-80
2023/10/06 15:26:43;;;;;;;7.17;2.43;;;15.80;99.90;;;;;;6153409;23;20280;-79
2023/10/06 15:29:19;;;;;;;5.60;2.33;;;15.80;99.90;;;;;;6129510;23;20157;-81
2023/10/06 15:31:56;;;;;;;5.83;2.30;;;15.80;99.90;;;;;;6106134;23;20198;-76
2023/10/06 15:34:39;;;;;;;4.17;2.17;;;16.00;99.90;;;;;;6124890;23;20271;-79
2023/10/06 15:37:19;;;;;;;7.53;2.50;;;15.80;99.90;;;;;;6097435;23;20201;-79
2023/10/06 15:39:50;;;;;;;6.10;2.40;;;15.80;99.90;;;;;;6075899;23;20181;-75
2023/10/06 15:42:40;;;;;;;5.13;2.50;;;15.70;99.90;;;;;;6100630;23;20231;-78
2023/10/06 15:45:13;;;;;;;6.13;2.07;;;15.70;99.90;;;;;;6075633;23;20644;-78
2023/10/06 15:47:51;;;;;;;12.30;2.93;;;15.70;99.90;;;;;;6098533;23;20180;-76
2023/10/06 15:50:29;;;;;;;6.47;2.47;;;15.70;99.90;;;;;;6097941;23;20187;-79
2023/10/06 15:53:00;;;;;;;5.60;2.23;;;15.70;99.90;;;;;;6098181;23;20620;-79
2023/10/06 15:56:13;;;;;;;5.03;2.67;;;15.60;99.90;;;;;;6105174;23;20208;-79
2023/10/06 16:04:12;;;;;;;5.17;2.10;;;15.60;99.90;;;;;;5887696;24;20182;-80
2023/10/06 16:08:43;;;;;;;;;;;;;;;;;;;;;
2023/10/06 16:15:39;;;;;;;;;;;;;;;;;;;;;
2023/10/06 16:28:54;;;;;;;6.40;2.63;;;15.40;99.90;;;;;;4528993;27;15332858;-83
2023/10/06 16:31:59;;;;;;;5.03;2.40;;;15.20;99.90;;;;;;5066858;28;20205;-79
2023/10/06 16:34:46;;;;;;;7.77;2.50;;;15.10;99.90;;;;;;5035258;28;20197;-78
2023/10/06 16:37:49;;;;;;;;;;;;;;;;;;;;;
2023/10/06 16:40:32;;;;;;;8.13;2.60;;;15.10;99.90;;;;;;5065349;28;20206;-76
2023/10/06 16:43:19;;;;;;;5.90;2.50;;;15.10;99.90;;;;;;5034935;28;20285;-80
2023/10/06 16:45:56;;;;;;;5.60;2.47;;;15.00;99.90;;;;;;5049598;28;20285;-79
2023/10/06 16:48:29;;;;;;;6.40;2.70;;;15.00;99.90;;;;;;5065802;28;20198;-77
2023/10/06 16:51:06;;;;;;;5.13;2.80;;;15.00;99.90;;;;;;5035250;28;20291;-80
2023/10/06 16:54:20;;;;;;;7.40;3.00;;;15.00;99.90;;;;;;5048798;28;20200;-80
2023/10/06 16:57:04;;;;;;;6.20;2.80;;;14.90;99.90;;;;;;5049115;28;20214;-80
2023/10/06 16:59:40;;;;;;;9.43;3.23;;;14.90;99.90;;;;;;5032491;28;20205;-79
2023/10/06 17:02:44;;;;;;;9.43;3.03;;;14.90;99.90;;;;;;5049982;28;20290;-80
2023/10/06 17:05:21;;;;;;;7.33;3.03;;;14.90;99.90;;;;;;5068022;28;20237;-79
2023/10/06 17:07:52;;;;;;;5.43;2.60;;;14.90;99.90;;;;;;5071311;28;20685;-79
2023/10/06 17:10:30;;;;;;;6.03;2.90;;;14.90;99.90;;;;;;5092112;28;20197;-77
2023/10/06 17:13:03;;;;;;;6.47;3.00;;;14.90;99.90;;;;;;5074041;28;20192;-81
2023/10/06 17:15:31;;;;;;;5.83;2.97;;;14.80;99.90;;;;;;5072590;28;20229;-80
2023/10/06 17:18:09;;;;;;;6.17;3.50;;;14.90;99.90;;;;;;5073768;28;20675;-80
2023/10/06 17:20:57;;;;;;;6.37;2.90;;;14.80;99.90;;;;;;5085565;28;20247;-80
2023/10/06 17:23:47;;;;;;;8.23;3.20;;;14.80;99.90;;;;;;5091844;28;20733;-79
2023/10/06 17:26:18;;;;;;;8.37;3.50;;;14.80;99.90;;;;;;5073592;28;20199;-79
2023/10/06 17:28:51;;;;;;;7.63;3.37;;;14.80;99.90;;;;;;5061193;28;20320;-78
2023/10/06 17:31:32;;;;;;;8.00;3.63;;;14.80;99.90;;;;;;5039548;28;20274;-76
2023/10/06 17:34:01;;;;;;;6.80;3.40;;;14.70;99.90;;;;;;5055197;28;20266;-79
2023/10/06 17:36:32;;;;;;;6.33;3.67;;;14.70;99.90;;;;;;5072485;28;20316;-77
2023/10/06 17:39:07;;;;;;;5.57;3.60;;;14.60;99.90;;;;;;5056210;28;20196;-77
2023/10/06 17:41:41;;;;;;;8.70;3.47;;;14.70;99.90;;;;;;5072862;28;20201;-80